createdAt,value
2018-04-27T00:00:54.397Z,98196
2018-04-27T00:03:27.130Z,98197
2018-04-27T00:05:59.892Z,98194
2018-04-27T00:08:32.013Z,98195
2018-04-27T00:11:04.787Z,98190
2018-04-27T00:13:37.253Z,98198
2018-04-27T00:16:09.671Z,98192
2018-04-27T00:18:42.173Z,98197
2018-04-27T00:21:14.135Z,98195
2018-04-27T00:23:47.072Z,98195
2018-04-27T00:26:19.293Z,98188
2018-04-27T00:28:51.955Z,98184
2018-04-27T00:31:24.635Z,98182
2018-04-27T00:33:58.910Z,98190
2018-04-27T00:36:32.577Z,98183
2018-04-27T00:39:04.518Z,98187
2018-04-27T00:41:38.179Z,98191
2018-04-27T00:44:09.874Z,98187
2018-04-27T00:46:43.432Z,98193
2018-04-27T00:49:15.252Z,98188
2018-04-27T00:51:48.155Z,98187
2018-04-27T00:54:20.094Z,98182
2018-04-27T00:56:53.654Z,98183
2018-04-27T00:59:26.653Z,98181
2018-04-27T01:01:58.755Z,98181
2018-04-27T01:04:30.839Z,98185
2018-04-27T01:07:02.935Z,98185
2018-04-27T01:09:35.255Z,98188
2018-04-27T01:12:07.677Z,98182
2018-04-27T01:14:41.920Z,98176
2018-04-27T01:17:14.873Z,98171
2018-04-27T01:19:47.892Z,98175
2018-04-27T01:22:20.176Z,98174
2018-04-27T01:24:51.890Z,98172
2018-04-27T01:27:24.177Z,98170
2018-04-27T01:29:56.435Z,98165
2018-04-27T01:32:28.292Z,98163
2018-04-27T01:35:00.212Z,98155
2018-04-27T01:37:32.473Z,98164
2018-04-27T01:40:04.238Z,98163
2018-04-27T01:42:36.994Z,98169
2018-04-27T01:45:10.112Z,98172
2018-04-27T01:47:43.572Z,98163
2018-04-27T01:50:15.934Z,98168
2018-04-27T01:52:49.391Z,98167
2018-04-27T01:55:22.480Z,98169
2018-04-27T01:57:55.874Z,98164
2018-04-27T02:00:28.690Z,98164
2018-04-27T02:03:00.493Z,98158
2018-04-27T02:05:35.513Z,98156
2018-04-27T02:08:07.733Z,98154
2018-04-27T02:10:40.594Z,98152
2018-04-27T02:13:13.198Z,98144
2018-04-27T02:15:45.920Z,98148
2018-04-27T02:18:18.892Z,98142
2018-04-27T02:20:51.814Z,98143
2018-04-27T02:23:24.531Z,98143
2018-04-27T02:25:56.293Z,98150
2018-04-27T02:28:30.011Z,98150
2018-04-27T02:31:02.989Z,98151
2018-04-27T02:33:36.897Z,98145
2018-04-27T02:36:10.372Z,98143
2018-04-27T02:38:43.234Z,98149
2018-04-27T02:41:15.098Z,98145
2018-04-27T02:43:47.590Z,98145
2018-04-27T02:46:19.879Z,98149
2018-04-27T02:48:52.775Z,98146
2018-04-27T02:51:25.231Z,98143
2018-04-27T02:53:57.955Z,98141
2018-04-27T02:56:30.512Z,98138
2018-04-27T02:59:03.477Z,98136
2018-04-27T03:01:37.655Z,98129
2018-04-27T03:04:09.791Z,98127
2018-04-27T03:06:42.553Z,98126
2018-04-27T03:09:14.518Z,98127
2018-04-27T03:11:45.951Z,98123
2018-04-27T03:14:18.873Z,98118
2018-04-27T03:16:51.613Z,98112
2018-04-27T03:19:24.452Z,98110
2018-04-27T03:21:56.434Z,98104
2018-04-27T03:24:29.557Z,98110
2018-04-27T03:27:03.853Z,98099
2018-04-27T03:29:37.080Z,98098
2018-04-27T03:32:11.316Z,98099
2018-04-27T03:34:45.096Z,98099
2018-04-27T03:37:20.374Z,98092
2018-04-27T03:39:54.515Z,98082
2018-04-27T03:42:27.050Z,98077
2018-04-27T03:44:58.814Z,98076
2018-04-27T03:47:31.838Z,98080
2018-04-27T03:50:03.951Z,98072
2018-04-27T03:52:35.752Z,98069
2018-04-27T03:55:07.511Z,98062
2018-04-27T03:57:40.115Z,98065
2018-04-27T04:00:30.251Z,98056
2018-04-27T04:03:18.673Z,98049
2018-04-27T04:05:51.495Z,98047
2018-04-27T04:08:24.635Z,98041
2018-04-27T04:11:13.755Z,98038
2018-04-27T04:13:45.608Z,98045
2018-04-27T04:16:18.044Z,98046
2018-04-27T04:18:50.870Z,98041
2018-04-27T04:21:25.093Z,98040
2018-04-27T04:23:58.411Z,98041
2018-04-27T04:26:32.494Z,98040
2018-04-27T04:29:04.875Z,98038
2018-04-27T04:31:38.880Z,98038
2018-04-27T04:34:12.252Z,98041
2018-04-27T04:36:47.433Z,98042
2018-04-27T04:39:21.398Z,98051
2018-04-27T04:41:53.828Z,98053
2018-04-27T04:44:26.449Z,98045
2018-04-27T04:47:01.657Z,98045
2018-04-27T04:49:34.752Z,98041
2018-04-27T04:52:08.739Z,98043
2018-04-27T04:54:42.455Z,98040
2018-04-27T04:57:15.670Z,98043
2018-04-27T04:59:49.492Z,98031
2018-04-27T05:02:23.290Z,98025
2018-04-27T05:04:56.954Z,98025
2018-04-27T05:07:29.576Z,98028
2018-04-27T05:10:02.435Z,98031
2018-04-27T05:12:38.394Z,98040
2018-04-27T05:15:11.496Z,98037
2018-04-27T05:17:45.355Z,98041
2018-04-27T05:20:16.593Z,98044
2018-04-27T05:22:49.371Z,98037
2018-04-27T05:25:22.928Z,98037
2018-04-27T05:27:55.495Z,98038
2018-04-27T05:30:29.016Z,98029
2018-04-27T05:33:09.453Z,98030
2018-04-27T05:35:42.428Z,98031
2018-04-27T05:38:15.733Z,98035
2018-04-27T05:40:49.599Z,98030
2018-04-27T05:43:24.594Z,98034
2018-04-27T05:45:57.415Z,98026
2018-04-27T05:48:31.533Z,98023
2018-04-27T05:51:07.434Z,98025
2018-04-27T05:53:42.054Z,98016
2018-04-27T05:56:16.323Z,98019
2018-04-27T05:58:51.251Z,98010
2018-04-27T06:01:25.056Z,98003
2018-04-27T06:04:14.714Z,97995
2018-04-27T06:06:49.653Z,97984
2018-04-27T06:09:22.272Z,97981
2018-04-27T06:11:55.330Z,97985
2018-04-27T06:14:28.573Z,97979
2018-04-27T06:17:02.438Z,97983
2018-04-27T06:19:36.235Z,97985
2018-04-27T06:22:10.256Z,97977
2018-04-27T06:25:06.610Z,97971
2018-04-27T06:40:54.595Z,97967
2018-04-27T06:43:34.292Z,97964
2018-04-27T06:46:15.644Z,97964
2018-04-27T06:48:54.792Z,97950
2018-04-27T06:51:31.317Z,97947
2018-04-27T06:54:05.027Z,97942
2018-04-27T06:56:39.638Z,97936
2018-04-27T06:59:12.456Z,97933
2018-04-27T07:01:46.275Z,97935
2018-04-27T07:04:25.292Z,97930
2018-04-27T07:07:01.653Z,97926
2018-04-27T07:09:41.588Z,97925
2018-04-27T07:12:13.388Z,97918
2018-04-27T07:14:46.109Z,97908
2018-04-27T07:17:19.795Z,97904
2018-04-27T07:19:54.850Z,97909
2018-04-27T07:22:28.248Z,97903
2018-04-27T07:25:01.590Z,97897
2018-04-27T07:27:33.214Z,97894
2018-04-27T07:30:15.833Z,97886
2018-04-27T07:32:55.177Z,97887
2018-04-27T07:35:31.076Z,97894
2018-04-27T07:38:03.214Z,97887
2018-04-27T07:40:41.289Z,97875
2018-04-27T07:43:17.016Z,97866
2018-04-27T07:45:51.455Z,97867
2018-04-27T07:48:25.856Z,97867
2018-04-27T07:51:03.138Z,97868
2018-04-27T07:53:41.551Z,97859
2018-04-27T07:56:14.470Z,97850
2018-04-27T07:58:48.910Z,97847
2018-04-27T08:01:21.054Z,97832
2018-04-27T08:04:02.073Z,97831
2018-04-27T08:06:34.722Z,97825
2018-04-27T08:09:06.894Z,97826
2018-04-27T08:11:40.856Z,97817
2018-04-27T08:14:13.591Z,97817
2018-04-27T08:16:54.675Z,97813
2018-04-27T08:19:37.789Z,97816
2018-04-27T08:22:17.075Z,97818
2018-04-27T08:24:49.655Z,97813
2018-04-27T08:27:23.276Z,97813
2018-04-27T08:29:57.574Z,97802
2018-04-27T08:32:32.630Z,97788
2018-04-27T08:35:05.747Z,97782
2018-04-27T08:37:41.451Z,97783
2018-04-27T08:40:13.831Z,97777
2018-04-27T08:42:49.626Z,97786
2018-04-27T08:45:25.715Z,97782
2018-04-27T08:47:59.569Z,97775
2018-04-27T08:53:27.758Z,97761
2018-04-27T08:56:03.874Z,97759
2018-04-27T08:58:37.958Z,97754
2018-04-27T09:01:10.476Z,97754
2018-04-27T09:03:44.739Z,97741
2018-04-27T09:06:19.643Z,97752
2018-04-27T09:08:56.137Z,97743
2018-04-27T09:11:28.131Z,97736
2018-04-27T09:14:01.415Z,97735
2018-04-27T09:16:36.994Z,97732
2018-04-27T09:19:20.045Z,97723
2018-04-27T09:21:55.239Z,97719
2018-04-27T09:24:43.670Z,97709
2018-04-27T09:56:58.059Z,97662
2018-04-27T09:59:33.345Z,97654
2018-04-27T10:43:46.544Z,97570
2018-04-27T10:46:22.340Z,97560
2018-04-27T10:48:58.422Z,97555
2018-04-27T10:51:47.623Z,97549
2018-04-27T10:54:23.685Z,97551
2018-04-27T10:56:56.437Z,97542
2018-04-27T10:59:34.117Z,97544
2018-04-27T11:02:07.900Z,97544
2018-04-27T11:05:02.884Z,97533
2018-04-27T11:07:38.163Z,97529
2018-04-27T11:10:12.137Z,97514
2018-04-27T11:12:48.286Z,97526
2018-04-27T11:25:03.061Z,97492
2018-04-27T11:27:40.639Z,97481
2018-04-27T11:33:06.018Z,97482
2018-04-27T11:38:46.043Z,97478
2018-04-27T11:41:19.240Z,97471
2018-04-27T11:43:53.301Z,97466
2018-04-27T11:46:50.899Z,97457
2018-04-27T11:52:44.384Z,97446
2018-04-27T11:55:24.620Z,97441
2018-04-27T12:10:06.589Z,97433
2018-04-27T12:58:10.501Z,97348
2018-04-27T13:06:42.481Z,97344
2018-04-27T13:12:53.762Z,97335
2018-04-27T13:29:16.346Z,97309
2018-04-27T13:31:48.861Z,97302
2018-04-27T13:37:29.518Z,97293
2018-04-27T13:40:03.675Z,97291
2018-04-27T13:42:36.591Z,97297
2018-04-27T13:45:10.759Z,97301
2018-04-27T13:47:46.186Z,97292
2018-04-27T13:50:23.340Z,97295
2018-04-27T13:56:02.564Z,97278
2018-04-27T13:59:09.403Z,97279
2018-04-27T14:04:52.864Z,97270
2018-04-27T14:10:33.167Z,97264
2018-04-27T14:13:08.240Z,97251
2018-04-27T14:15:59.960Z,97249
2018-04-27T14:18:31.131Z,97248
2018-04-27T14:21:08.523Z,97247
2018-04-27T14:23:42.345Z,97242
2018-04-27T14:26:17.871Z,97250
2018-04-27T14:32:10.589Z,97247
2018-04-27T14:34:45.391Z,97242
2018-04-27T14:46:24.950Z,97218
2018-04-27T14:49:00.118Z,97218
2018-04-27T14:51:33.107Z,97220
2018-04-27T14:54:07.605Z,97219
2018-04-27T15:02:42.661Z,97203
2018-04-27T15:05:14.008Z,97196
2018-04-27T15:07:47.624Z,97200
2018-04-27T15:10:21.128Z,97198
2018-04-27T15:12:54.468Z,97198
2018-04-27T15:15:26.902Z,97188
2018-04-27T15:17:59.362Z,97195
2018-04-27T15:41:22.024Z,97212
2018-04-27T15:44:16.103Z,97208
2018-04-27T15:46:53.028Z,97215
2018-04-27T15:49:28.164Z,97218
2018-04-27T15:52:02.593Z,97212
2018-04-27T15:54:37.130Z,97212
2018-04-27T15:57:36.366Z,97216
2018-04-27T16:00:10.551Z,97216
2018-04-27T16:02:46.090Z,97210
2018-04-27T16:05:21.923Z,97200
2018-04-27T16:07:55.635Z,97194
2018-04-27T16:10:29.602Z,97192
2018-04-27T16:13:12.501Z,97193
2018-04-27T16:16:05.521Z,97195
2018-04-27T16:18:38.707Z,97196
2018-04-27T16:21:12.289Z,97199
2018-04-27T16:23:48.706Z,97195
2018-04-27T16:26:29.575Z,97195
2018-04-27T16:29:03.530Z,97195
2018-04-27T16:31:37.409Z,97193
2018-04-27T16:34:13.243Z,97188
2018-04-27T16:36:48.661Z,97188
2018-04-27T16:39:22.162Z,97188
2018-04-27T16:42:00.204Z,97186
2018-04-27T16:44:43.782Z,97178
2018-04-27T16:47:18.626Z,97176
2018-04-27T16:49:51.868Z,97171
2018-04-27T16:52:24.426Z,97168
2018-04-27T16:54:57.621Z,97167
2018-04-27T16:57:32.408Z,97170
2018-04-27T17:00:07.491Z,97170
2018-04-27T17:02:41.825Z,97170
2018-04-27T17:05:17.045Z,97169
2018-04-27T17:07:49.509Z,97175
2018-04-27T17:10:24.854Z,97172
2018-04-27T17:12:59.393Z,97175
2018-04-27T17:15:32.947Z,97175
2018-04-27T17:18:09.292Z,97173
2018-04-27T17:20:42.379Z,97169
2018-04-27T17:23:19.068Z,97167
2018-04-27T17:25:52.252Z,97166
2018-04-27T17:28:26.125Z,97169
2018-04-27T17:31:03.647Z,97169
2018-04-27T17:33:44.230Z,97174
2018-04-27T17:36:25.209Z,97175
2018-04-27T17:39:00.086Z,97179
2018-04-27T17:41:33.888Z,97175
2018-04-27T17:44:08.942Z,97174
2018-04-27T17:46:42.202Z,97174
2018-04-27T17:49:15.325Z,97179
2018-04-27T17:51:48.193Z,97172
2018-04-27T17:54:21.684Z,97175
2018-04-27T17:59:43.667Z,97195
2018-04-27T18:02:15.367Z,97197
2018-04-27T18:04:55.551Z,97198
2018-04-27T18:07:27.593Z,97196
2018-04-27T18:10:00.143Z,97194
2018-04-27T18:12:32.661Z,97188
2018-04-27T18:15:04.544Z,97196
2018-04-27T18:17:37.028Z,97199
2018-04-27T18:20:09.623Z,97199
2018-04-27T18:22:42.685Z,97195
2018-04-27T18:25:15.770Z,97195
2018-04-27T18:27:53.248Z,97194
2018-04-27T18:30:26.121Z,97200
2018-04-27T18:35:46.985Z,97203
2018-04-27T18:38:20.644Z,97198
2018-04-27T18:40:56.407Z,97202
2018-04-27T18:43:29.567Z,97203
2018-04-27T18:46:04.627Z,97202
2018-04-27T18:48:41.709Z,97203
2018-04-27T18:51:18.828Z,97209
2018-04-27T18:53:52.761Z,97208
2018-04-27T18:59:09.905Z,97215
2018-04-27T19:01:46.137Z,97221
2018-04-27T19:04:22.151Z,97225
2018-04-27T19:06:56.529Z,97220
2018-04-27T19:09:31.091Z,97223
2018-04-27T19:12:04.520Z,97229
2018-04-27T19:14:37.825Z,97225
2018-04-27T19:17:25.262Z,97234
2018-04-27T19:19:59.450Z,97238
2018-04-27T19:22:32.574Z,97241
2018-04-27T19:25:07.703Z,97239
2018-04-27T19:27:43.024Z,97243
2018-04-27T19:30:15.770Z,97240
2018-04-27T19:32:50.904Z,97239
2018-04-27T19:35:24.902Z,97236
2018-04-27T19:37:58.801Z,97240
2018-04-27T19:43:18.444Z,97250
2018-04-27T19:45:50.986Z,97246
2018-04-27T19:48:26.050Z,97252
2018-04-27T19:50:59.062Z,97250
2018-04-27T19:53:34.158Z,97251
2018-04-27T19:56:08.351Z,97255
2018-04-27T19:58:42.643Z,97258
2018-04-27T20:01:31.748Z,97254
2018-04-27T20:04:05.074Z,97254
2018-04-27T20:06:38.025Z,97256
2018-04-27T20:09:12.068Z,97253
2018-04-27T20:11:48.473Z,97256
2018-04-27T20:14:34.344Z,97260
2018-04-27T20:17:10.808Z,97264
2018-04-27T20:19:50.628Z,97262
2018-04-27T20:22:25.988Z,97265
2018-04-27T20:25:11.290Z,97270
2018-04-27T20:27:53.546Z,97278
2018-04-27T20:30:28.463Z,97285
2018-04-27T20:33:03.586Z,97283
2018-04-27T20:35:37.724Z,97281
2018-04-27T20:38:22.325Z,97286
2018-04-27T20:40:56.249Z,97285
2018-04-27T20:43:30.350Z,97283
2018-04-27T20:46:03.505Z,97284
2018-04-27T20:48:44.451Z,97288
2018-04-27T20:51:17.208Z,97290
2018-04-27T20:54:06.302Z,97287
2018-04-27T20:56:57.323Z,97295
2018-04-27T20:59:33.827Z,97296
2018-04-27T21:05:02.666Z,97294
2018-04-27T21:10:22.672Z,97296
2018-04-27T21:12:57.983Z,97295
2018-04-27T21:15:32.344Z,97296
2018-04-27T21:18:09.710Z,97301
2018-04-27T21:20:44.285Z,97296
2018-04-27T21:23:18.983Z,97300
2018-04-27T21:26:12.444Z,97299
2018-04-27T21:28:44.945Z,97301
2018-04-27T21:31:21.243Z,97301
2018-04-27T21:34:00.687Z,97306
2018-04-27T21:36:37.071Z,97310
2018-04-27T21:39:24.789Z,97312
2018-04-27T21:41:58.468Z,97316
2018-04-27T21:44:51.970Z,97320
2018-04-27T21:47:51.545Z,97317
2018-04-27T21:50:24.124Z,97318
2018-04-27T21:52:59.285Z,97322
2018-04-27T21:55:31.429Z,97329
2018-04-27T21:58:16.267Z,97329
2018-04-27T22:00:49.921Z,97334
2018-04-27T22:03:28.221Z,97339
2018-04-27T22:06:08.263Z,97343
2018-04-27T22:09:05.026Z,97345
2018-04-27T22:33:52.757Z,97369
2018-04-27T22:36:30.839Z,97367
2018-04-27T22:42:33.825Z,97380
2018-04-27T22:45:20.684Z,97386
2018-04-27T22:51:13.061Z,97394
2018-04-27T22:53:51.212Z,97401
2018-04-27T22:56:54.392Z,97400
2018-04-27T22:59:28.922Z,97410
2018-04-27T23:02:20.814Z,97410
2018-04-27T23:05:09.956Z,97418
2018-04-27T23:07:54.119Z,97422
2018-04-27T23:10:24.621Z,97428
2018-04-27T23:13:04.282Z,97424
2018-04-27T23:15:41.937Z,97427
2018-04-27T23:18:16.409Z,97430
2018-04-27T23:20:50.452Z,97430
2018-04-27T23:23:19.519Z,97439
2018-04-27T23:25:51.288Z,97440
2018-04-27T23:28:21.797Z,97440
2018-04-27T23:30:50.712Z,97436
2018-04-27T23:33:19.717Z,97442
2018-04-27T23:35:55.717Z,97438
2018-04-27T23:38:25.217Z,97438
2018-04-27T23:40:56.894Z,97436
2018-04-27T23:43:26.462Z,97440
2018-04-27T23:45:55.680Z,97443
2018-04-27T23:48:24.625Z,97443
2018-04-27T23:51:04.841Z,97438
2018-04-27T23:53:41.407Z,97431
2018-04-27T23:56:13.680Z,97437
2018-04-27T23:58:47.323Z,97446
